Time;durP1;ratioP1;P1;durP2;ratioP2;P2;SDS_P1;SDS_P2;PMS_P1;PMS_P2;Temp;Humidity;BMP_temperature;BMP_pressure;BME280_temperature;BME280_humidity;BME280_pressure;Samples;Min_cycle;Max_cycle;Signal;HPM_P1;HPM_P2
2022/07/07 00:01:58;;;;;;;1.30;1.00;;;;;;;19.24;44.88;101158.41;4181939;28;20051;-65
2022/07/07 00:04:02;;;;;;;4.13;1.05;;;;;;;19.28;44.17;101152.22;4181107;28;20487;-66
2022/07/07 00:06:05;;;;;;;2.63;1.00;;;;;;;19.30;44.81;101147.78;4184722;28;20076;-66
2022/07/07 00:08:09;;;;;;;2.33;1.00;;;;;;;19.33;44.42;101158.28;4181590;28;20065;-67
2022/07/07 00:10:12;;;;;;;4.35;1.10;;;;;;;19.31;44.88;101157.44;4181360;28;20447;-66
2022/07/07 00:12:15;;;;;;;2.67;1.10;;;;;;;19.33;44.79;101158.28;4174356;28;20534;-66
2022/07/07 00:14:18;;;;;;;2.42;1.00;;;;;;;19.35;44.68;101144.22;4182711;28;20051;-66
2022/07/07 00:16:21;;;;;;;4.07;0.90;;;;;;;19.33;45.33;101143.38;4180741;28;20033;-66
2022/07/07 00:18:24;;;;;;;2.55;1.00;;;;;;;19.29;45.73;101143.38;4180194;28;20063;-66
2022/07/07 00:20:27;;;;;;;2.58;1.10;;;;;;;19.25;45.88;101145.19;4175267;28;20042;-66
2022/07/07 00:22:30;;;;;;;2.92;1.25;;;;;;;19.26;46.43;101152.22;4174522;28;20462;-65
2022/07/07 00:24:34;;;;;;;1.80;1.08;;;;;;;19.25;46.87;101146.97;4178996;28;20087;-65
2022/07/07 00:26:37;;;;;;;3.80;1.90;;;;;;;19.19;47.52;101146.13;4184743;28;20037;-66
2022/07/07 00:28:40;;;;;;;4.45;1.48;;;;;;;19.21;48.48;101140.84;4193785;28;20041;-66
2022/07/07 00:30:43;;;;;;;4.78;1.42;;;;;;;19.21;48.62;101142.63;4190082;28;20090;-66
2022/07/07 00:32:46;;;;;;;13.20;1.70;;;;;;;19.18;49.56;101144.38;4180126;28;20079;-66
2022/07/07 00:34:49;;;;;;;4.82;1.73;;;;;;;19.17;49.65;101136.50;4186618;28;20516;-65
2022/07/07 00:36:51;;;;;;;14.13;2.25;;;;;;;19.15;49.80;101139.16;4181989;28;20033;-66
2022/07/07 00:38:54;;;;;;;4.18;1.60;;;;;;;19.13;50.42;101137.44;4176861;28;20048;-66
2022/07/07 00:40:59;;;;;;;5.82;1.95;;;;;;;19.11;51.09;101142.69;4180716;28;20036;-66
2022/07/07 00:43:02;;;;;;;8.30;2.40;;;;;;;19.07;51.11;101148.00;4180890;28;20119;-66
2022/07/07 00:45:06;;;;;;;4.60;1.50;;;;;;;19.04;51.34;101142.78;4182575;28;20041;-66
2022/07/07 00:47:10;;;;;;;2.20;1.40;;;;;;;19.01;52.20;101135.78;4182672;28;20040;-65
2022/07/07 00:49:14;;;;;;;4.38;2.03;;;;;;;19.01;52.06;101134.03;4181289;28;20041;-66
2022/07/07 00:51:17;;;;;;;3.50;2.00;;;;;;;18.97;51.97;101139.34;4180843;28;20096;-66
2022/07/07 00:53:20;;;;;;;4.93;1.70;;;;;;;18.95;52.15;101142.00;4155393;28;20044;-66
2022/07/07 00:55:23;;;;;;;7.50;2.05;;;;;;;18.97;51.65;101144.63;4181647;28;20075;-66
2022/07/07 00:57:28;;;;;;;5.93;1.70;;;;;;;18.98;51.84;101126.16;4181373;28;20060;-66
2022/07/07 00:59:32;;;;;;;3.85;1.55;;;;;;;19.02;51.07;101127.00;4173132;28;20072;-66
2022/07/07 01:01:37;;;;;;;4.47;1.80;;;;;;;19.06;50.85;101126.06;4180279;28;20119;-66
2022/07/07 01:03:41;;;;;;;4.97;1.63;;;;;;;19.10;50.54;101132.16;4182718;28;20032;-66
2022/07/07 01:05:46;;;;;;;4.07;1.60;;;;;;;19.05;50.58;101124.31;4180413;28;20445;-66
2022/07/07 01:07:51;;;;;;;4.18;1.58;;;;;;;18.99;50.51;101121.75;4187922;28;20078;-66
2022/07/07 01:09:54;;;;;;;5.22;1.45;;;;;;;18.95;50.34;101127.94;4172974;28;20047;-66
2022/07/07 01:11:59;;;;;;;3.42;1.35;;;;;;;18.91;50.52;101131.47;4179094;28;20045;-66
2022/07/07 01:14:03;;;;;;;;;;;;;;;18.72;51.54;101128.09;4190896;28;20435;-66
2022/07/07 01:16:06;;;;;;;9.43;1.55;;;;;;;18.75;51.28;101128.97;4179647;28;19928;-66
2022/07/07 01:18:09;;;;;;;2.45;1.67;;;;;;;18.80;50.92;101124.53;4181368;28;20564;-66
2022/07/07 01:20:13;;;;;;;3.65;1.52;;;;;;;18.86;50.50;101125.38;4180660;28;20044;-66
2022/07/07 01:22:18;;;;;;;4.88;1.40;;;;;;;18.83;50.16;101121.00;4179126;28;20041;-66
2022/07/07 01:24:23;;;;;;;;;;;;;;;18.70;51.17;101116.72;4181720;28;20443;-66
2022/07/07 01:26:27;;;;;;;2.95;1.73;;;;;;;18.71;51.14;101115.84;4180201;28;19920;-66
2022/07/07 01:28:30;;;;;;;12.98;2.50;;;;;;;18.68;50.89;101119.38;4180339;28;20036;-66
2022/07/07 01:30:32;;;;;;;2.63;1.45;;;;;;;18.65;51.35;101117.63;4173559;28;20412;-66
2022/07/07 01:32:35;;;;;;;4.82;1.75;;;;;;;18.62;51.41;101119.44;4174664;28;20053;-66
2022/07/07 01:34:40;;;;;;;3.88;1.60;;;;;;;18.57;51.86;101123.84;4179045;28;20037;-66
2022/07/07 01:36:43;;;;;;;4.88;1.50;;;;;;;18.52;51.61;101118.63;4180520;28;20136;-66
2022/07/07 01:38:46;;;;;;;4.30;1.60;;;;;;;18.48;51.49;101117.75;4180612;28;20033;-66
2022/07/07 01:40:50;;;;;;;3.92;1.52;;;;;;;18.49;51.51;101121.28;4181537;28;20041;-66
2022/07/07 01:42:53;;;;;;;4.85;1.70;;;;;;;18.43;52.02;101110.81;4186659;28;20029;-66
2022/07/07 01:44:56;;;;;;;4.45;1.67;;;;;;;18.43;51.77;101095.88;4181568;28;20509;-66
2022/07/07 01:46:59;;;;;;;4.80;1.58;;;;;;;18.43;51.94;101092.38;4179850;28;20037;-66
2022/07/07 01:49:02;;;;;;;6.15;1.52;;;;;;;18.38;52.10;101092.41;4173165;28;20042;-66
2022/07/07 01:51:05;;;;;;;3.03;1.38;;;;;;;18.35;52.32;101086.31;4178040;28;20063;-66
2022/07/07 01:53:08;;;;;;;3.15;1.42;;;;;;;18.36;52.22;101088.91;4179804;28;20658;-66
2022/07/07 01:55:10;;;;;;;6.50;2.00;;;;;;;18.36;52.35;101082.78;4179177;28;20059;-66
2022/07/07 01:57:15;;;;;;;5.82;1.55;;;;;;;18.40;51.99;101085.38;4184123;28;20559;-66
2022/07/07 01:59:18;;;;;;;5.30;1.88;;;;;;;18.38;52.62;101087.13;4174912;28;20471;-65
2022/07/07 02:01:21;;;;;;;3.17;1.45;;;;;;;18.37;52.15;101085.41;4195679;28;20055;-66
2022/07/07 02:03:25;;;;;;;4.53;1.90;;;;;;;18.42;52.45;101082.72;4177795;28;20048;-66
2022/07/07 02:05:29;;;;;;;9.30;1.90;;;;;;;18.44;52.13;101075.69;4176761;28;20052;-66
2022/07/07 02:07:35;;;;;;;5.32;1.58;;;;;;;18.40;52.57;101072.22;4179382;28;20120;-66
2022/07/07 02:09:38;;;;;;;4.45;1.80;;;;;;;18.45;52.56;101080.06;4179015;28;20036;-66
2022/07/07 02:11:41;;;;;;;6.03;2.20;;;;;;;18.48;52.44;101078.28;4179655;28;20043;-66
2022/07/07 02:13:47;;;;;;;7.65;2.30;;;;;;;18.48;52.51;101078.28;4177032;28;20124;-66
2022/07/07 02:15:50;;;;;;;4.10;1.80;;;;;;;18.43;52.79;101077.44;4180661;28;20033;-66
2022/07/07 02:17:53;;;;;;;4.80;1.98;;;;;;;18.45;52.87;101067.78;4179989;28;20040;-66
2022/07/07 02:19:56;;;;;;;5.25;1.92;;;;;;;18.53;52.63;101080.00;4170930;28;20029;-65
2022/07/07 02:21:59;;;;;;;3.15;1.60;;;;;;;18.49;53.05;101076.53;4179654;28;20037;-66
2022/07/07 02:24:02;;;;;;;2.08;1.60;;;;;;;18.42;52.83;101080.97;4180606;28;20671;-66
2022/07/07 02:26:05;;;;;;;7.82;1.63;;;;;;;18.41;52.40;101080.97;4180245;28;20044;-66
2022/07/07 02:28:08;;;;;;;1.98;1.42;;;;;;;18.39;52.88;101078.34;4179351;28;20567;-66
2022/07/07 02:30:12;;;;;;;2.70;1.80;;;;;;;18.44;52.18;101076.56;4172780;28;20119;-66
2022/07/07 02:32:15;;;;;;;2.50;1.30;;;;;;;18.36;51.83;101070.50;4177985;28;20041;-65
2022/07/07 02:34:18;;;;;;;3.00;1.67;;;;;;;18.33;52.24;101064.41;4179199;28;20554;-66
2022/07/07 02:36:21;;;;;;;4.80;1.67;;;;;;;18.30;51.35;101071.41;4170823;28;20496;-66
2022/07/07 02:38:24;;;;;;;3.45;1.40;;;;;;;18.32;51.65;101071.41;4180954;28;20143;-65
2022/07/07 02:40:27;;;;;;;4.95;1.45;;;;;;;18.40;51.49;101072.22;4179723;28;20124;-66
2022/07/07 02:42:30;;;;;;;3.13;1.30;;;;;;;18.36;51.30;101067.84;4172216;28;20043;-66
2022/07/07 02:44:33;;;;;;;2.45;1.40;;;;;;;18.33;51.13;101067.88;4177468;28;20033;-66
2022/07/07 02:46:37;;;;;;;3.53;1.60;;;;;;;18.27;50.80;101075.84;4179578;28;20040;-66
2022/07/07 02:48:40;;;;;;;1.63;1.05;;;;;;;18.28;50.90;101074.94;4179183;28;20147;-66
2022/07/07 02:50:43;;;;;;;2.95;1.42;;;;;;;18.33;50.77;101073.16;4178402;28;20051;-66
2022/07/07 02:52:46;;;;;;;2.08;1.02;;;;;;;18.33;50.63;101070.53;4175086;28;20097;-66
2022/07/07 02:54:49;;;;;;;2.30;1.30;;;;;;;18.36;50.76;101067.00;4175424;28;20088;-66
2022/07/07 02:56:52;;;;;;;3.65;1.50;;;;;;;18.37;50.31;101072.25;4174176;28;20517;-66
2022/07/07 02:58:55;;;;;;;3.45;1.80;;;;;;;18.39;50.24;101062.56;4176579;28;20494;-67
2022/07/07 03:00:58;;;;;;;3.22;1.30;;;;;;;18.38;49.59;101062.56;4179132;28;20132;-66
2022/07/07 03:03:03;;;;;;;3.45;1.30;;;;;;;18.40;49.92;101064.31;4172966;28;20049;-67
2022/07/07 03:05:07;;;;;;;3.80;1.27;;;;;;;18.39;49.66;101062.56;4179107;28;20600;-66
2022/07/07 03:07:10;;;;;;;5.40;1.15;;;;;;;18.31;50.35;101064.38;4183707;28;20506;-66
2022/07/07 03:09:13;;;;;;;4.13;1.45;;;;;;;18.40;50.10;101059.06;4180686;28;20037;-66
2022/07/07 03:11:16;;;;;;;3.53;1.50;;;;;;;18.41;49.93;101052.91;4164078;28;20047;-67
2022/07/07 03:13:19;;;;;;;2.67;1.20;;;;;;;18.42;49.72;101048.50;4165014;28;20509;-67
2022/07/07 03:15:22;;;;;;;3.03;1.45;;;;;;;18.40;50.02;101043.25;4179860;28;20037;-67
2022/07/07 03:17:25;;;;;;;7.60;1.90;;;;;;;18.45;49.65;101041.44;4178671;28;20270;-67
2022/07/07 03:19:29;;;;;;;3.88;1.35;;;;;;;18.40;49.32;101043.25;4179437;28;20051;-67
2022/07/07 03:21:32;;;;;;;4.20;1.50;;;;;;;18.41;49.63;101034.47;4178822;28;20106;-67
2022/07/07 03:23:35;;;;;;;5.18;1.50;;;;;;;18.37;49.92;101026.59;4181289;28;20568;-67
2022/07/07 03:25:38;;;;;;;2.45;1.35;;;;;;;18.35;49.94;101037.16;4176367;28;20061;-67
2022/07/07 03:27:41;;;;;;;4.93;1.95;;;;;;;18.35;49.94;101037.16;4174666;28;20083;-67
2022/07/07 03:29:44;;;;;;;2.83;1.20;;;;;;;18.46;49.46;101047.59;4175325;28;20492;-67
2022/07/07 03:31:47;;;;;;;3.47;1.48;;;;;;;18.45;49.79;101045.84;4190594;28;20119;-67
2022/07/07 03:33:50;;;;;;;3.55;1.40;;;;;;;18.33;50.17;101048.59;4179396;28;20066;-67
2022/07/07 03:35:54;;;;;;;3.20;1.30;;;;;;;18.29;50.24;101055.63;4189600;28;20044;-65
2022/07/07 03:37:57;;;;;;;2.17;1.20;;;;;;;18.30;50.64;101050.34;4178623;28;20139;-65
2022/07/07 03:40:00;;;;;;;2.95;1.40;;;;;;;18.32;50.64;101045.06;4177778;28;20043;-66
2022/07/07 03:42:03;;;;;;;2.80;1.25;;;;;;;18.31;51.08;101044.22;4177926;28;20105;-66
2022/07/07 03:44:06;;;;;;;3.20;1.30;;;;;;;18.30;50.83;101050.34;4178197;28;20048;-66
2022/07/07 03:46:09;;;;;;;2.03;1.20;;;;;;;18.27;51.32;101055.66;4175673;28;20033;-66
2022/07/07 03:48:12;;;;;;;6.45;1.63;;;;;;;18.31;51.22;101048.59;4167876;28;20033;-66
2022/07/07 03:50:15;;;;;;;3.75;1.45;;;;;;;18.53;50.58;101043.13;4171445;28;20041;-66
2022/07/07 03:52:20;;;;;;;3.45;1.27;;;;;;;18.38;49.76;101034.47;4180942;28;20643;-66
2022/07/07 03:54:23;;;;;;;2.40;1.48;;;;;;;18.25;50.97;101035.47;4178725;28;20048;-66
2022/07/07 03:56:25;;;;;;;5.85;1.40;;;;;;;18.31;50.85;101032.78;4177193;28;20048;-66
2022/07/07 03:58:28;;;;;;;6.13;1.65;;;;;;;18.32;50.58;101042.44;4179981;28;20037;-66
2022/07/07 04:00:32;;;;;;;4.10;1.35;;;;;;;18.29;50.53;101043.34;4172876;28;20487;-66
2022/07/07 04:02:35;;;;;;;3.92;1.38;;;;;;;18.27;50.73;101039.00;4167652;28;20491;-66
2022/07/07 04:04:38;;;;;;;2.90;1.30;;;;;;;18.25;51.07;101040.75;4173798;28;20447;-66
2022/07/07 04:06:41;;;;;;;3.13;1.50;;;;;;;18.21;51.09;101041.66;4176516;28;20459;-66
2022/07/07 04:08:45;;;;;;;2.63;1.30;;;;;;;18.23;51.26;101035.50;4182361;28;20029;-66
2022/07/07 04:10:48;;;;;;;3.25;1.20;;;;;;;18.22;51.41;101032.88;4182057;28;20041;-67
2022/07/07 04:12:53;;;;;;;3.55;1.92;;;;;;;18.29;51.38;101037.19;4179821;28;20563;-66
2022/07/07 04:14:56;;;;;;;2.17;1.27;;;;;;;18.30;51.66;101033.69;4180670;28;20037;-66
2022/07/07 04:16:59;;;;;;;2.38;1.55;;;;;;;18.38;51.70;101036.25;4178632;28;20116;-67
2022/07/07 04:19:02;;;;;;;3.60;1.60;;;;;;;18.39;51.91;101038.00;4178457;28;20507;-68
2022/07/07 04:21:05;;;;;;;3.67;1.35;;;;;;;18.29;52.09;101039.84;4181388;28;20500;-61
2022/07/07 04:23:09;;;;;;;4.15;1.45;;;;;;;18.54;54.12;101029.09;4181753;28;20045;-66
2022/07/07 04:25:13;;;;;;;7.78;2.17;;;;;;;18.88;52.53;101029.66;4181914;28;20033;-66
2022/07/07 04:27:16;;;;;;;4.57;1.40;;;;;;;19.01;51.94;101025.09;4150133;28;20509;-67
2022/07/07 04:29:19;;;;;;;8.57;2.33;;;;;;;19.12;50.94;101025.00;4174288;28;20041;-67
2022/07/07 04:31:28;;;;;;;5.13;1.70;;;;;;;19.10;51.70;101019.75;4169576;28;20071;-67
2022/07/07 04:33:32;;;;;;;3.22;1.27;;;;;;;19.15;51.91;101017.91;4184547;28;20504;-67
2022/07/07 04:35:35;;;;;;;3.03;1.48;;;;;;;19.13;51.30;101014.41;4195428;28;20427;-67
2022/07/07 04:37:37;;;;;;;3.78;1.35;;;;;;;19.05;51.79;101016.28;4177229;28;20044;-67
2022/07/07 04:39:40;;;;;;;3.33;1.23;;;;;;;19.18;50.60;101011.72;4180789;28;20090;-68
2022/07/07 04:41:45;;;;;;;2.13;1.38;;;;;;;19.15;49.67;101010.00;4181859;28;20045;-68
2022/07/07 04:43:48;;;;;;;2.08;1.10;;;;;;;18.96;49.59;101022.53;4172414;28;20467;-68
2022/07/07 04:45:51;;;;;;;3.25;1.33;;;;;;;18.79;49.72;101012.16;4175354;28;20135;-68
2022/07/07 04:47:54;;;;;;;3.35;1.60;;;;;;;18.66;50.40;101008.78;4181064;28;20061;-67
2022/07/07 04:49:57;;;;;;;3.70;1.25;;;;;;;18.60;50.93;101008.84;4187836;28;20444;-67
2022/07/07 04:52:00;;;;;;;2.65;1.10;;;;;;;18.67;50.85;101012.28;4181244;28;20047;-68
2022/07/07 04:54:02;;;;;;;3.92;1.10;;;;;;;18.58;51.14;101012.38;4187205;28;20041;-67
2022/07/07 04:56:06;;;;;;;3.15;1.27;;;;;;;18.52;50.85;101015.06;4174133;28;20065;-67
2022/07/07 04:58:10;;;;;;;1.77;1.23;;;;;;;18.44;50.62;101018.66;4182522;28;20061;-67
2022/07/07 05:00:14;;;;;;;1.73;1.55;;;;;;;18.37;50.94;101024.88;4182586;28;20037;-68
2022/07/07 05:02:18;;;;;;;4.75;1.40;;;;;;;18.30;51.21;101021.41;4189396;28;20403;-68
2022/07/07 05:04:21;;;;;;;3.08;1.20;;;;;;;18.31;51.10;101019.63;4179858;28;20107;-67
2022/07/07 05:06:24;;;;;;;4.93;1.80;;;;;;;18.26;51.38;101021.44;4164884;28;20048;-67
2022/07/07 05:08:27;;;;;;;2.90;1.30;;;;;;;18.31;50.90;101015.25;4169582;28;20033;-68
2022/07/07 05:10:30;;;;;;;5.40;1.60;;;;;;;18.27;50.94;101024.06;4186150;28;20124;-68
2022/07/07 05:12:33;;;;;;;4.55;1.33;;;;;;;18.28;51.11;101017.91;4171106;28;20180;-67
2022/07/07 05:14:38;;;;;;;3.15;1.20;;;;;;;18.34;51.39;101011.72;4165864;28;20482;-67
2022/07/07 05:16:41;;;;;;;3.53;1.42;;;;;;;18.37;51.73;101014.34;4165315;28;20048;-68
2022/07/07 05:18:44;;;;;;;2.40;1.10;;;;;;;18.44;50.92;101012.50;4165648;28;20041;-67
2022/07/07 05:20:47;;;;;;;6.68;1.55;;;;;;;18.43;50.93;101016.91;4180822;28;20049;-68
2022/07/07 05:22:50;;;;;;;3.47;1.88;;;;;;;18.39;50.62;101017.81;4179726;28;20033;-68
2022/07/07 05:24:52;;;;;;;1.27;1.02;;;;;;;18.28;50.63;101011.75;4180656;28;20090;-68
2022/07/07 05:26:55;;;;;;;4.63;1.40;;;;;;;18.30;51.02;101008.25;4165564;28;20052;-67
2022/07/07 05:28:58;;;;;;;3.83;1.38;;;;;;;18.33;51.21;101004.72;4165640;28;20045;-67
2022/07/07 05:31:02;;;;;;;3.30;1.10;;;;;;;18.37;51.15;101005.53;4165562;28;20099;-68
2022/07/07 05:33:07;;;;;;;;;;;;;;;18.22;51.50;101009.19;4165647;28;20037;-67
2022/07/07 05:35:11;;;;;;;4.00;1.50;;;;;;;18.26;51.29;101011.78;4165430;28;19975;-68
2022/07/07 05:37:14;;;;;;;3.40;1.38;;;;;;;18.34;50.96;101006.47;4185058;28;20526;-68
2022/07/07 05:39:17;;;;;;;2.30;1.20;;;;;;;18.33;51.08;101001.22;4173507;28;20037;-67
2022/07/07 05:41:20;;;;;;;3.22;1.15;;;;;;;18.36;51.38;100998.56;4165266;28;20518;-67
2022/07/07 05:43:23;;;;;;;3.10;1.10;;;;;;;18.37;51.44;100995.91;4164902;28;20172;-67
2022/07/07 05:45:26;;;;;;;5.82;1.50;;;;;;;18.30;51.31;100999.47;4165262;28;20484;-68
2022/07/07 05:47:30;;;;;;;4.28;1.40;;;;;;;18.27;51.31;100986.34;4171911;28;20055;-68
2022/07/07 05:49:33;;;;;;;4.78;1.45;;;;;;;18.27;51.78;100983.72;4178635;28;20039;-68
2022/07/07 05:51:36;;;;;;;3.45;1.00;;;;;;;18.33;52.23;100988.91;4168977;28;20045;-67
2022/07/07 05:53:39;;;;;;;6.43;1.98;;;;;;;18.42;51.86;100982.69;4177668;28;20124;-68
2022/07/07 05:55:42;;;;;;;5.05;1.45;;;;;;;18.37;52.67;100995.91;4196274;28;20044;-68
2022/07/07 05:57:44;;;;;;;4.25;1.40;;;;;;;18.46;52.09;100993.16;4169243;28;20041;-68
2022/07/07 05:59:47;;;;;;;2.58;1.40;;;;;;;18.45;52.72;101003.72;4165354;28;20123;-68
2022/07/07 06:01:50;;;;;;;6.93;1.40;;;;;;;18.60;52.44;101007.97;4164973;28;20409;-68
2022/07/07 06:03:54;;;;;;;3.78;1.15;;;;;;;18.59;52.49;101011.50;4183921;28;20484;-67
2022/07/07 06:05:58;;;;;;;2.67;1.50;;;;;;;18.59;52.35;101011.50;4175442;28;20044;-68
2022/07/07 06:08:01;;;;;;;4.22;1.45;;;;;;;18.59;51.86;101011.50;4163674;28;20068;-67
2022/07/07 06:10:04;;;;;;;2.63;1.38;;;;;;;18.65;52.00;101006.16;4185553;28;20119;-68
2022/07/07 06:12:07;;;;;;;5.00;1.27;;;;;;;18.72;52.11;101013.13;4187960;28;20044;-68
2022/07/07 06:14:10;;;;;;;3.80;1.23;;;;;;;18.72;52.26;101013.13;4181448;28;20051;-67
2022/07/07 06:16:13;;;;;;;4.40;1.40;;;;;;;18.80;51.93;101005.13;4171251;28;20041;-68
2022/07/07 06:18:17;;;;;;;3.95;1.30;;;;;;;18.79;52.02;101017.44;4173113;28;20047;-68
2022/07/07 06:20:21;;;;;;;6.88;1.70;;;;;;;18.82;52.10;101020.03;4181209;28;20475;-68
2022/07/07 06:22:25;;;;;;;3.50;1.60;;;;;;;18.82;51.75;101022.66;4180885;28;20037;-68
2022/07/07 06:24:28;;;;;;;2.55;1.27;;;;;;;18.77;51.72;101010.41;4181040;28;20041;-67
2022/07/07 06:26:31;;;;;;;2.97;1.45;;;;;;;18.79;51.44;101020.06;4196374;28;20139;-68
2022/07/07 06:28:34;;;;;;;2.88;1.20;;;;;;;18.77;52.08;101019.19;4179209;28;20176;-68
2022/07/07 06:30:37;;;;;;;4.03;1.58;;;;;;;18.86;52.27;101017.34;4179492;28;20036;-67
2022/07/07 06:32:40;;;;;;;1.70;1.13;;;;;;;18.82;51.99;101014.75;4184158;28;20075;-68
2022/07/07 06:34:43;;;;;;;6.43;1.52;;;;;;;18.91;51.97;101013.81;4179764;28;20102;-68
2022/07/07 06:36:47;;;;;;;4.30;1.50;;;;;;;18.93;51.62;101006.75;4164442;28;20136;-68
2022/07/07 06:38:50;;;;;;;2.47;0.90;;;;;;;18.99;51.77;101008.44;4164494;28;20033;-68
2022/07/07 06:40:58;;;;;;;3.60;1.30;;;;;;;19.08;51.76;101007.47;4164474;28;20048;-68
2022/07/07 06:43:00;;;;;;;4.35;1.73;;;;;;;19.13;51.76;101017.06;4163935;28;20103;-68
2022/07/07 06:45:05;;;;;;;4.05;1.52;;;;;;;19.11;52.18;101012.69;4168434;28;20087;-67
2022/07/07 06:47:08;;;;;;;3.83;1.70;;;;;;;19.17;52.01;101009.97;4179714;28;20047;-68
2022/07/07 06:49:12;;;;;;;4.90;2.05;;;;;;;19.23;51.96;101009.03;4180620;28;20090;-68
2022/07/07 06:51:15;;;;;;;;;;;;;;;19.04;52.25;101011.03;4179944;28;20049;-67
2022/07/07 06:53:19;;;;;;;2.60;1.33;;;;;;;19.02;52.34;101013.66;4180390;28;19921;-68
2022/07/07 06:55:22;;;;;;;2.50;1.33;;;;;;;19.02;51.83;101016.31;4162961;28;20513;-68
2022/07/07 06:57:25;;;;;;;3.13;1.58;;;;;;;18.97;51.44;101012.88;4180626;28;20047;-68
2022/07/07 06:59:28;;;;;;;6.22;1.63;;;;;;;19.00;52.19;101012.84;4181339;28;20028;-68
2022/07/07 07:01:31;;;;;;;4.65;1.75;;;;;;;19.03;52.62;101015.44;4169056;28;20055;-68
2022/07/07 07:03:34;;;;;;;6.38;1.60;;;;;;;19.08;52.56;101025.91;4164002;28;20334;-68
2022/07/07 07:05:38;;;;;;;4.00;1.42;;;;;;;19.18;52.81;101020.50;4146827;28;20052;-68
2022/07/07 07:07:41;;;;;;;6.82;1.83;;;;;;;19.17;52.50;101021.41;4164123;28;20060;-68
2022/07/07 07:09:45;;;;;;;3.22;1.33;;;;;;;19.17;52.79;101034.59;4165235;28;20037;-68
2022/07/07 07:11:49;;;;;;;3.25;1.20;;;;;;;19.17;52.62;101037.22;4182963;28;20129;-68
2022/07/07 07:14:02;;;;;;;5.00;1.48;;;;;;;19.10;52.13;101029.38;4166066;28;20061;-68
2022/07/07 07:16:05;;;;;;;4.55;1.55;;;;;;;19.09;52.48;101028.53;4164171;28;20053;-68
2022/07/07 07:18:08;;;;;;;7.22;1.75;;;;;;;19.05;52.68;101045.25;4162961;28;20436;-68
2022/07/07 07:20:14;;;;;;;4.40;1.80;;;;;;;19.00;52.55;101044.44;4164028;28;20042;-68
2022/07/07 07:22:17;;;;;;;4.43;1.92;;;;;;;18.91;52.69;101047.16;4162655;28;20088;-67
2022/07/07 07:24:20;;;;;;;7.10;1.50;;;;;;;18.83;53.24;101047.22;4171865;28;20044;-68
2022/07/07 07:26:24;;;;;;;4.93;1.70;;;;;;;18.87;53.12;101045.47;4179332;28;20128;-68
2022/07/07 07:28:27;;;;;;;;;;;;;;;18.72;53.66;101043.81;4179710;28;20044;-68
2022/07/07 07:30:31;;;;;;;4.88;1.48;;;;;;;18.80;53.48;101040.22;4163933;28;19921;-68
2022/07/07 07:32:34;;;;;;;4.50;1.87;;;;;;;18.89;53.16;101041.06;4163614;28;20041;-68
2022/07/07 07:34:37;;;;;;;3.90;1.52;;;;;;;18.99;53.39;101034.78;4163851;28;20129;-68
2022/07/07 07:36:40;;;;;;;3.90;1.30;;;;;;;19.06;53.20;101038.25;4164042;28;20048;-68
2022/07/07 07:38:44;;;;;;;5.13;1.70;;;;;;;19.06;53.04;101036.47;4161260;28;20037;-68
2022/07/07 07:40:47;;;;;;;7.72;2.05;;;;;;;19.03;53.39;101041.78;4168178;28;20505;-68
2022/07/07 07:42:51;;;;;;;6.15;2.75;;;;;;;19.06;54.11;101039.09;4165663;28;20527;-68
2022/07/07 07:45:12;;;;;;;6.90;1.52;;;;;;;19.05;53.88;101037.34;4167270;28;20576;-67
2022/07/07 07:47:15;;;;;;;2.25;1.55;;;;;;;19.06;54.64;101031.19;4173507;28;20064;-68
2022/07/07 07:49:18;;;;;;;5.55;2.05;;;;;;;19.09;55.06;101027.66;4174565;28;20041;-68
2022/07/07 07:51:21;;;;;;;5.38;1.70;;;;;;;19.10;54.49;101032.91;4181281;28;20037;-68
2022/07/07 07:53:24;;;;;;;6.75;2.50;;;;;;;19.14;54.92;101021.44;4174721;28;20484;-68
2022/07/07 07:55:28;;;;;;;7.75;2.10;;;;;;;19.21;54.62;101002.91;4165851;28;20037;-68
2022/07/07 07:57:31;;;;;;;9.88;2.50;;;;;;;19.25;54.37;100999.34;4165650;28;20041;-68
2022/07/07 07:59:35;;;;;;;8.68;2.60;;;;;;;19.32;53.84;101001.03;4165911;28;20058;-68
2022/07/07 08:01:38;;;;;;;;;;;;;;;19.33;54.21;100989.56;4167147;28;20367;-68
2022/07/07 08:03:41;;;;;;;13.50;2.90;;;;;;;19.44;53.62;100998.19;4166752;28;19929;-68
2022/07/07 08:05:44;;;;;;;8.55;2.40;;;;;;;19.59;53.67;100996.25;4167852;28;20440;-68
2022/07/07 08:07:50;;;;;;;14.52;2.85;;;;;;;19.69;53.26;101005.75;4175133;28;20380;-68
2022/07/07 08:09:53;;;;;;;6.50;2.38;;;;;;;19.79;53.02;101007.41;4183124;28;20041;-68
2022/07/07 08:11:56;;;;;;;6.00;2.00;;;;;;;19.80;53.00;101010.91;4165104;28;20468;-68
2022/07/07 08:13:59;;;;;;;9.68;2.45;;;;;;;19.72;53.09;101011.00;4182931;28;20105;-68
2022/07/07 08:16:04;;;;;;;4.63;1.75;;;;;;;19.75;53.00;101010.06;4184883;28;20035;-68
2022/07/07 08:18:06;;;;;;;;;;;;;;;19.68;53.79;100998.72;4168312;28;20051;-68
2022/07/07 08:20:10;;;;;;;6.82;2.03;;;;;;;19.88;53.65;101001.09;4173459;28;19921;-68
2022/07/07 08:22:13;;;;;;;7.18;2.28;;;;;;;20.00;53.54;100998.25;4183162;28;20131;-68
2022/07/07 08:24:16;;;;;;;8.27;2.78;;;;;;;20.02;53.61;100996.47;4166577;28;20041;-68
2022/07/07 08:26:19;;;;;;;5.90;2.25;;;;;;;20.10;53.51;100996.34;4181740;28;20044;-68
2022/07/07 08:28:22;;;;;;;6.10;1.92;;;;;;;20.19;53.43;100990.03;4166601;28;20049;-68
2022/07/07 08:30:24;;;;;;;4.85;2.38;;;;;;;20.19;53.67;100982.13;4171063;28;20036;-68
2022/07/07 08:32:29;;;;;;;5.35;1.73;;;;;;;20.26;53.55;100978.47;4173116;28;20041;-68
2022/07/07 08:34:32;;;;;;;7.03;2.35;;;;;;;20.25;53.80;100986.44;4197464;28;20036;-68
2022/07/07 08:36:40;;;;;;;5.47;2.00;;;;;;;20.19;54.10;100983.00;4177522;28;20033;-68
2022/07/07 08:38:43;;;;;;;3.00;1.75;;;;;;;20.16;53.88;100988.31;4177524;28;20033;-68
2022/07/07 08:40:46;;;;;;;6.38;2.10;;;;;;;20.14;54.41;100995.41;4174434;28;20566;-68
2022/07/07 08:42:49;;;;;;;5.05;1.83;;;;;;;20.05;54.43;101000.84;4177452;28;20052;-68
2022/07/07 08:44:52;;;;;;;7.30;2.10;;;;;;;20.05;54.23;100991.16;4182746;28;20049;-68
2022/07/07 08:46:55;;;;;;;3.97;1.95;;;;;;;20.12;54.77;100996.31;4182646;28;20504;-68
2022/07/07 08:49:00;;;;;;;4.90;1.80;;;;;;;20.23;54.38;100992.59;4182687;28;20051;-68
2022/07/07 08:51:03;;;;;;;5.10;1.90;;;;;;;20.36;54.64;100992.41;4182557;28;20411;-68
2022/07/07 08:53:08;;;;;;;14.30;2.75;;;;;;;20.41;54.72;100990.53;4179677;28;20049;-68
2022/07/07 08:55:14;;;;;;;7.35;2.00;;;;;;;20.58;54.44;100985.81;4183736;28;20044;-69
2022/07/07 08:57:18;;;;;;;6.78;2.63;;;;;;;20.76;53.90;100983.75;4174206;28;20064;-68
2022/07/07 08:59:21;;;;;;;8.07;2.35;;;;;;;20.89;53.91;100981.72;4175249;28;20040;-69
2022/07/07 09:01:24;;;;;;;4.65;1.73;;;;;;;20.90;53.07;100976.41;4181012;28;20052;-69
2022/07/07 09:03:27;;;;;;;8.57;1.77;;;;;;;20.89;52.93;100974.66;4180820;28;20053;-68
2022/07/07 09:05:37;;;;;;;3.85;1.38;;;;;;;20.93;52.80;100976.34;4166140;28;20378;-69
2022/07/07 09:07:48;;;;;;;4.45;1.90;;;;;;;20.97;52.63;100984.22;4173876;28;20044;-69
2022/07/07 09:09:52;;;;;;;4.95;1.40;;;;;;;20.93;52.40;100981.63;4192665;28;20488;-68
2022/07/07 09:12:00;;;;;;;3.83;1.92;;;;;;;20.88;52.71;100980.88;4178047;28;20116;-69
2022/07/07 09:14:10;;;;;;;7.38;2.35;;;;;;;20.77;52.62;100980.22;4173615;28;20127;-69
2022/07/07 09:16:16;;;;;;;7.10;1.60;;;;;;;20.78;52.71;100989.88;4165740;28;20037;-69
2022/07/07 09:18:33;;;;;;;4.43;1.92;;;;;;;20.87;52.60;100987.03;4165769;28;20034;-69
2022/07/07 09:20:38;;;;;;;3.10;1.58;;;;;;;20.88;52.57;100988.78;4180975;28;20520;-69
2022/07/07 09:22:41;;;;;;;;;;;;;;;20.74;53.35;100975.84;4164610;28;20103;-68
2022/07/07 09:24:55;;;;;;;3.78;1.60;;;;;;;20.78;53.07;100984.59;4164490;28;19921;-68
2022/07/07 09:26:58;;;;;;;3.85;1.42;;;;;;;20.74;53.37;100988.19;4172520;28;20048;-68
2022/07/07 09:29:01;;;;;;;3.13;1.85;;;;;;;20.77;53.29;100989.91;4178763;28;20043;-69
2022/07/07 09:31:04;;;;;;;3.30;1.83;;;;;;;20.73;53.19;100989.09;4182029;28;20082;-69
2022/07/07 09:33:08;;;;;;;4.10;1.65;;;;;;;20.68;52.92;100985.69;4197034;28;20131;-69
2022/07/07 09:38:13;;;;;;;;;;;;;;;20.57;53.35;100985.84;4182366;28;20037;-69
2022/07/07 09:38:13;;;;;;;2.65;1.60;;;;;;;20.49;53.00;100986.00;4181943;28;19985;-69